sensor_id;sensor_type;location;lat;lon;timestamp;pressure;altitude;pressure_sealevel;temperature;humidity
47883;BME280;37739;50.350;7.578;2023-03-13T00:01:33;98931.34;;;10.14;75.29
47883;BME280;37739;50.350;7.578;2023-03-13T00:03:59;98923.66;;;10.14;75.15
47883;BME280;37739;50.350;7.578;2023-03-13T00:06:26;98922.88;;;10.16;75.22
47883;BME280;37739;50.350;7.578;2023-03-13T00:08:57;98910.88;;;10.15;75.33
47883;BME280;37739;50.350;7.578;2023-03-13T00:11:24;98917.75;;;10.16;75.57
47883;BME280;37739;50.350;7.578;2023-03-13T00:13:53;98909.22;;;10.17;75.55
47883;BME280;37739;50.350;7.578;2023-03-13T00:16:18;98902.38;;;10.16;75.44
47883;BME280;37739;50.350;7.578;2023-03-13T00:18:49;98895.56;;;10.17;75.50
47883;BME280;37739;50.350;7.578;2023-03-13T00:21:15;98881.88;;;10.18;75.53
47883;BME280;37739;50.350;7.578;2023-03-13T00:23:41;98883.72;;;10.22;75.57
47883;BME280;37739;50.350;7.578;2023-03-13T00:26:09;98876.88;;;10.22;75.68
47883;BME280;37739;50.350;7.578;2023-03-13T00:28:38;98873.44;;;10.20;75.40
47883;BME280;37739;50.350;7.578;2023-03-13T00:31:10;98867.41;;;10.18;75.56
47883;BME280;37739;50.350;7.578;2023-03-13T00:33:38;98863.09;;;10.17;75.52
47883;BME280;37739;50.350;7.578;2023-03-13T00:36:10;98864.78;;;10.17;75.76
47883;BME280;37739;50.350;7.578;2023-03-13T00:38:38;98862.13;;;10.12;76.36
47883;BME280;37739;50.350;7.578;2023-03-13T00:41:09;98852.94;;;10.20;76.17
47883;BME280;37739;50.350;7.578;2023-03-13T00:43:39;98842.75;;;10.25;76.07
47883;BME280;37739;50.350;7.578;2023-03-13T00:46:08;98834.22;;;10.25;75.98
47883;BME280;37739;50.350;7.578;2023-03-13T00:48:36;98834.25;;;10.26;76.08
47883;BME280;37739;50.350;7.578;2023-03-13T00:51:05;98826.59;;;10.28;76.01
47883;BME280;37739;50.350;7.578;2023-03-13T00:53:31;98823.19;;;10.29;76.11
47883;BME280;37739;50.350;7.578;2023-03-13T00:56:07;98813.78;;;10.29;76.16
47883;BME280;37739;50.350;7.578;2023-03-13T00:58:36;98813.06;;;10.32;76.14
47883;BME280;37739;50.350;7.578;2023-03-13T01:03:34;98798.63;;;10.37;76.25
47883;BME280;37739;50.350;7.578;2023-03-13T01:06:07;98790.03;;;10.35;76.23
47883;BME280;37739;50.350;7.578;2023-03-13T01:08:33;98789.22;;;10.36;76.48
47883;BME280;37739;50.350;7.578;2023-03-13T01:11:10;98784.13;;;10.37;76.08
47883;BME280;37739;50.350;7.578;2023-03-13T01:13:39;98773.81;;;10.36;76.23
47883;BME280;37739;50.350;7.578;2023-03-13T01:16:07;98767.81;;;10.34;76.50
47883;BME280;37739;50.350;7.578;2023-03-13T01:18:34;98757.59;;;10.35;76.67
47883;BME280;37739;50.350;7.578;2023-03-13T01:21:02;98761.84;;;10.35;78.09
47883;BME280;37739;50.350;7.578;2023-03-13T01:23:28;98753.38;;;10.39;78.12
47883;BME280;37739;50.350;7.578;2023-03-13T01:25:56;98756.81;;;10.39;78.18
47883;BME280;37739;50.350;7.578;2023-03-13T01:28:22;98749.13;;;10.41;78.45
47883;BME280;37739;50.350;7.578;2023-03-13T01:30:50;98745.78;;;10.44;78.64
47883;BME280;37739;50.350;7.578;2023-03-13T01:33:16;98734.69;;;10.43;78.05
47883;BME280;37739;50.350;7.578;2023-03-13T01:35:44;98734.69;;;10.45;77.78
47883;BME280;37739;50.350;7.578;2023-03-13T01:38:10;98738.91;;;10.43;78.35
47883;BME280;37739;50.350;7.578;2023-03-13T01:40:53;98720.97;;;10.43;79.81
47883;BME280;37739;50.350;7.578;2023-03-13T01:43:26;98726.25;;;10.50;80.17
47883;BME280;37739;50.350;7.578;2023-03-13T01:54:20;98682.63;;;10.49;78.75
47883;BME280;37739;50.350;7.578;2023-03-13T01:56:50;98697.94;;;10.44;78.72
47883;BME280;37739;50.350;7.578;2023-03-13T01:59:23;98690.22;;;10.44;79.44
47883;BME280;37739;50.350;7.578;2023-03-13T02:01:55;98691.13;;;10.46;78.92
47883;BME280;37739;50.350;7.578;2023-03-13T02:04:24;98686.88;;;10.48;78.73
47883;BME280;37739;50.350;7.578;2023-03-13T02:06:56;98672.34;;;10.47;80.43
47883;BME280;37739;50.350;7.578;2023-03-13T02:09:25;98669.84;;;10.50;80.23
47883;BME280;37739;50.350;7.578;2023-03-13T02:12:12;98659.66;;;10.53;80.27
47883;BME280;37739;50.350;7.578;2023-03-13T02:14:41;98646.88;;;10.55;80.54
47883;BME280;37739;50.350;7.578;2023-03-13T02:17:07;98645.97;;;10.54;81.49
47883;BME280;37739;50.350;7.578;2023-03-13T02:19:48;98652.00;;;10.56;80.87
47883;BME280;37739;50.350;7.578;2023-03-13T02:27:56;98628.91;;;10.55;82.90
47883;BME280;37739;50.350;7.578;2023-03-13T02:30:22;98637.44;;;10.54;82.56
47883;BME280;37739;50.350;7.578;2023-03-13T02:32:51;98628.88;;;10.53;83.06
47883;BME280;37739;50.350;7.578;2023-03-13T02:35:20;98609.28;;;10.57;83.65
47883;BME280;37739;50.350;7.578;2023-03-13T02:37:53;98605.84;;;10.56;83.87
47883;BME280;37739;50.350;7.578;2023-03-13T02:40:27;98594.72;;;10.56;84.20
47883;BME280;37739;50.350;7.578;2023-03-13T02:42:54;98599.03;;;10.57;83.98
47883;BME280;37739;50.350;7.578;2023-03-13T02:45:20;98587.06;;;10.57;83.97
47883;BME280;37739;50.350;7.578;2023-03-13T02:47:48;98579.38;;;10.57;84.60
47883;BME280;37739;50.350;7.578;2023-03-13T02:50:17;98588.81;;;10.60;84.88
47883;BME280;37739;50.350;7.578;2023-03-13T02:55:21;98589.69;;;10.60;85.27
47883;BME280;37739;50.350;7.578;2023-03-13T02:57:53;98577.75;;;10.63;85.44
47883;BME280;37739;50.350;7.578;2023-03-13T03:00:20;98582.00;;;10.62;85.65
47883;BME280;37739;50.350;7.578;2023-03-13T03:02:51;98582.84;;;10.61;85.32
47883;BME280;37739;50.350;7.578;2023-03-13T03:05:16;98586.31;;;10.63;86.54
47883;BME280;37739;50.350;7.578;2023-03-13T03:07:41;98590.63;;;10.66;85.64
47883;BME280;37739;50.350;7.578;2023-03-13T03:10:09;98574.38;;;10.65;86.27
47883;BME280;37739;50.350;7.578;2023-03-13T03:12:37;98565.81;;;10.65;86.08
47883;BME280;37739;50.350;7.578;2023-03-13T03:15:05;98569.31;;;10.68;86.14
47883;BME280;37739;50.350;7.578;2023-03-13T03:17:31;98565.88;;;10.69;86.70
47883;BME280;37739;50.350;7.578;2023-03-13T03:19:58;98570.19;;;10.70;86.21
47883;BME280;37739;50.350;7.578;2023-03-13T03:22:26;98577.91;;;10.73;86.14
47883;BME280;37739;50.350;7.578;2023-03-13T03:24:53;98567.66;;;10.73;87.16
47883;BME280;37739;50.350;7.578;2023-03-13T03:27:21;98570.22;;;10.73;87.50
47883;BME280;37739;50.350;7.578;2023-03-13T03:29:48;98564.25;;;10.74;87.43
47883;BME280;37739;50.350;7.578;2023-03-13T03:32:14;98553.97;;;10.73;88.33
47883;BME280;37739;50.350;7.578;2023-03-13T03:34:39;98555.72;;;10.75;87.41
47883;BME280;37739;50.350;7.578;2023-03-13T03:37:04;98530.94;;;10.76;87.84
47883;BME280;37739;50.350;7.578;2023-03-13T03:39:32;98544.63;;;10.76;88.03
47883;BME280;37739;50.350;7.578;2023-03-13T03:41:57;98549.78;;;10.79;87.33
47883;BME280;37739;50.350;7.578;2023-03-13T03:44:25;98550.69;;;10.80;87.93
47883;BME280;37739;50.350;7.578;2023-03-13T03:46:50;98536.13;;;10.80;88.74
47883;BME280;37739;50.350;7.578;2023-03-13T03:49:15;98526.75;;;10.83;87.89
47883;BME280;37739;50.350;7.578;2023-03-13T03:51:43;98523.34;;;10.82;88.24
47883;BME280;37739;50.350;7.578;2023-03-13T03:54:11;98529.31;;;10.83;88.38
47883;BME280;37739;50.350;7.578;2023-03-13T03:56:38;98524.25;;;10.86;88.41
47883;BME280;37739;50.350;7.578;2023-03-13T03:59:04;98543.06;;;10.86;89.09
47883;BME280;37739;50.350;7.578;2023-03-13T04:01:31;98532.81;;;10.86;89.74
47883;BME280;37739;50.350;7.578;2023-03-13T04:03:57;98531.13;;;10.88;88.48
47883;BME280;37739;50.350;7.578;2023-03-13T04:06:22;98531.16;;;10.90;89.44
47883;BME280;37739;50.350;7.578;2023-03-13T04:08:49;98517.47;;;10.91;89.99
47883;BME280;37739;50.350;7.578;2023-03-13T04:11:15;98491.03;;;10.93;89.89
47883;BME280;37739;50.350;7.578;2023-03-13T04:13:42;98479.03;;;10.94;89.97
47883;BME280;37739;50.350;7.578;2023-03-13T04:16:08;98497.00;;;10.94;89.76
47883;BME280;37739;50.350;7.578;2023-03-13T04:18:36;98497.03;;;10.95;90.04
47883;BME280;37739;50.350;7.578;2023-03-13T04:21:03;98514.16;;;10.98;90.50
47883;BME280;37739;50.350;7.578;2023-03-13T04:23:31;98509.03;;;10.98;90.69
47883;BME280;37739;50.350;7.578;2023-03-13T04:25:57;98495.38;;;10.99;90.23
47883;BME280;37739;50.350;7.578;2023-03-13T04:28:22;98504.78;;;11.00;90.61
47883;BME280;37739;50.350;7.578;2023-03-13T04:30:47;98497.09;;;11.00;91.01
47883;BME280;37739;50.350;7.578;2023-03-13T04:33:16;98479.97;;;11.00;90.87
47883;BME280;37739;50.350;7.578;2023-03-13T04:35:42;98467.16;;;10.99;91.83
47883;BME280;37739;50.350;7.578;2023-03-13T04:38:08;98495.38;;;10.99;91.65
47883;BME280;37739;50.350;7.578;2023-03-13T04:40:33;98497.09;;;11.00;92.15
47883;BME280;37739;50.350;7.578;2023-03-13T04:42:59;98468.03;;;11.03;92.05
47883;BME280;37739;50.350;7.578;2023-03-13T04:45:26;98448.31;;;11.00;93.20
47883;BME280;37739;50.350;7.578;2023-03-13T04:47:52;98446.63;;;10.99;93.31
47883;BME280;37739;50.350;7.578;2023-03-13T04:50:19;98438.06;;;11.00;93.67
47883;BME280;37739;50.350;7.578;2023-03-13T04:52:47;98411.56;;;11.01;93.90
47883;BME280;37739;50.350;7.578;2023-03-13T04:55:12;98408.16;;;11.02;93.77
47883;BME280;37739;50.350;7.578;2023-03-13T04:57:38;98401.31;;;11.03;94.39
47883;BME280;37739;50.350;7.578;2023-03-13T05:00:06;98409.91;;;11.06;93.68
47883;BME280;37739;50.350;7.578;2023-03-13T05:02:34;98421.91;;;11.07;94.41
47883;BME280;37739;50.350;7.578;2023-03-13T05:05:00;98439.03;;;11.08;94.73
47883;BME280;37739;50.350;7.578;2023-03-13T05:07:25;98447.59;;;11.10;94.32
47883;BME280;37739;50.350;7.578;2023-03-13T05:09:50;98452.75;;;11.09;95.28
47883;BME280;37739;50.350;7.578;2023-03-13T05:12:20;98459.56;;;11.07;95.51
47883;BME280;37739;50.350;7.578;2023-03-13T05:14:47;98432.19;;;11.10;94.58
47883;BME280;37739;50.350;7.578;2023-03-13T05:17:14;98435.66;;;11.11;95.71
47883;BME280;37739;50.350;7.578;2023-03-13T05:19:41;98424.56;;;11.13;95.24
47883;BME280;37739;50.350;7.578;2023-03-13T05:22:07;98415.13;;;11.14;95.18
47883;BME280;37739;50.350;7.578;2023-03-13T05:24:34;98401.44;;;11.13;95.91
47883;BME280;37739;50.350;7.578;2023-03-13T05:27:00;98399.72;;;11.12;96.23
47883;BME280;37739;50.350;7.578;2023-03-13T05:29:28;98380.09;;;11.14;96.66
47883;BME280;37739;50.350;7.578;2023-03-13T05:31:53;98368.19;;;11.21;95.76
47883;BME280;37739;50.350;7.578;2023-03-13T05:34:21;98369.88;;;11.20;95.93
47883;BME280;37739;50.350;7.578;2023-03-13T05:36:51;98358.78;;;11.23;95.67
47883;BME280;37739;50.350;7.578;2023-03-13T05:39:16;98339.16;;;11.27;96.15
47883;BME280;37739;50.350;7.578;2023-03-13T05:41:44;98347.75;;;11.30;95.75
47883;BME280;37739;50.350;7.578;2023-03-13T05:44:11;98351.13;;;11.28;96.39
47883;BME280;37739;50.350;7.578;2023-03-13T05:46:39;98334.03;;;11.31;96.53
47883;BME280;37739;50.350;7.578;2023-03-13T05:49:04;98338.38;;;11.34;96.62
47883;BME280;37739;50.350;7.578;2023-03-13T05:51:30;98349.50;;;11.34;97.03
47883;BME280;37739;50.350;7.578;2023-03-13T05:53:57;98368.34;;;11.36;96.53
47883;BME280;37739;50.350;7.578;2023-03-13T05:56:22;98378.69;;;11.43;96.31
47883;BME280;37739;50.350;7.578;2023-03-13T05:58:48;98374.41;;;11.43;96.63
47883;BME280;37739;50.350;7.578;2023-03-13T06:01:15;98354.72;;;11.44;96.96
47883;BME280;37739;50.350;7.578;2023-03-13T06:03:43;98356.47;;;11.46;96.51
47883;BME280;37739;50.350;7.578;2023-03-13T06:06:08;98351.41;;;11.54;96.32
47883;BME280;37739;50.350;7.578;2023-03-13T06:08:36;98341.13;;;11.54;96.33
47883;BME280;37739;50.350;7.578;2023-03-13T06:11:06;98341.16;;;11.55;96.72
47883;BME280;37739;50.350;7.578;2023-03-13T06:13:36;98336.88;;;11.57;96.57
47883;BME280;37739;50.350;7.578;2023-03-13T06:16:04;98321.53;;;11.61;96.16
47883;BME280;37739;50.350;7.578;2023-03-13T06:18:32;98348.06;;;11.61;96.68
47883;BME280;37739;50.350;7.578;2023-03-13T06:21:02;98339.53;;;11.65;96.05
47883;BME280;37739;50.350;7.578;2023-03-13T06:23:28;98336.09;;;11.66;96.37
47883;BME280;37739;50.350;7.578;2023-03-13T06:25:54;98345.56;;;11.72;96.11
47883;BME280;37739;50.350;7.578;2023-03-13T06:28:19;98360.16;;;11.74;96.64
47883;BME280;37739;50.350;7.578;2023-03-13T06:30:47;98388.44;;;11.76;96.25
47883;BME280;37739;50.350;7.578;2023-03-13T06:33:17;98369.59;;;11.77;96.41
47883;BME280;37739;50.350;7.578;2023-03-13T06:35:43;98389.31;;;11.79;96.31
47883;BME280;37739;50.350;7.578;2023-03-13T06:38:11;98397.94;;;11.85;96.17
47883;BME280;37739;50.350;7.578;2023-03-13T06:40:39;98404.03;;;11.91;95.58
47883;BME280;37739;50.350;7.578;2023-03-13T06:43:06;98402.31;;;11.92;95.83
47883;BME280;37739;50.350;7.578;2023-03-13T06:45:35;98398.91;;;11.94;95.76
47883;BME280;37739;50.350;7.578;2023-03-13T06:48:00;98400.66;;;11.98;95.48
47883;BME280;37739;50.350;7.578;2023-03-13T06:50:26;98412.72;;;12.04;95.10
47883;BME280;37739;50.350;7.578;2023-03-13T06:52:54;98413.59;;;12.06;95.29
47883;BME280;37739;50.350;7.578;2023-03-13T06:55:19;98410.16;;;12.06;95.46
47883;BME280;37739;50.350;7.578;2023-03-13T06:57:49;98394.72;;;12.06;95.02
47883;BME280;37739;50.350;7.578;2023-03-13T07:00:17;98405.03;;;12.06;95.37
47883;BME280;37739;50.350;7.578;2023-03-13T07:02:42;98409.34;;;12.10;94.84
47883;BME280;37739;50.350;7.578;2023-03-13T07:05:11;98417.06;;;12.11;94.87
47883;BME280;37739;50.350;7.578;2023-03-13T07:07:38;98428.19;;;12.12;94.54
47883;BME280;37739;50.350;7.578;2023-03-13T07:10:04;98418.81;;;12.17;93.49
47883;BME280;37739;50.350;7.578;2023-03-13T07:12:32;98431.69;;;12.17;93.63
47883;BME280;37739;50.350;7.578;2023-03-13T07:14:58;98455.66;;;12.16;93.61
47883;BME280;37739;50.350;7.578;2023-03-13T07:17:25;98453.06;;;12.13;94.07
47883;BME280;37739;50.350;7.578;2023-03-13T07:19:51;98448.81;;;12.16;93.86
47883;BME280;37739;50.350;7.578;2023-03-13T07:22:18;98452.22;;;12.14;93.98
47883;BME280;37739;50.350;7.578;2023-03-13T07:24:46;98458.19;;;12.11;95.02
47883;BME280;37739;50.350;7.578;2023-03-13T07:27:11;98466.75;;;12.12;94.85
47883;BME280;37739;50.350;7.578;2023-03-13T07:29:41;98458.22;;;12.14;94.30
47883;BME280;37739;50.350;7.578;2023-03-13T07:32:06;98461.69;;;12.16;93.75
47883;BME280;37739;50.350;7.578;2023-03-13T07:34:34;98465.97;;;12.19;93.21
47883;BME280;37739;50.350;7.578;2023-03-13T07:37:02;98462.50;;;12.15;93.07
47883;BME280;37739;50.350;7.578;2023-03-13T07:39:27;98477.09;;;12.18;92.81
47883;BME280;37739;50.350;7.578;2023-03-13T07:41:52;98472.81;;;12.20;92.35
47883;BME280;37739;50.350;7.578;2023-03-13T07:44:20;98484.84;;;12.21;92.56
47883;BME280;37739;50.350;7.578;2023-03-13T07:46:47;98492.53;;;12.20;92.65
47883;BME280;37739;50.350;7.578;2023-03-13T07:49:16;98507.97;;;12.20;92.93
47883;BME280;37739;50.350;7.578;2023-03-13T07:51:44;98508.81;;;12.17;93.53
47883;BME280;37739;50.350;7.578;2023-03-13T07:54:12;98501.94;;;12.16;93.57
47883;BME280;37739;50.350;7.578;2023-03-13T07:56:38;98510.53;;;12.16;93.68
47883;BME280;37739;50.350;7.578;2023-03-13T07:59:04;98510.53;;;12.20;93.08
47883;BME280;37739;50.350;7.578;2023-03-13T08:01:31;98512.25;;;12.19;93.50
47883;BME280;37739;50.350;7.578;2023-03-13T08:03:59;98509.69;;;12.19;93.40
47883;BME280;37739;50.350;7.578;2023-03-13T08:06:31;98511.38;;;12.20;93.46
47883;BME280;37739;50.350;7.578;2023-03-13T08:08:59;98505.44;;;12.23;93.00
47883;BME280;37739;50.350;7.578;2023-03-13T08:11:26;98497.75;;;12.24;93.33
47883;BME280;37739;50.350;7.578;2023-03-13T08:13:57;98490.94;;;12.31;92.94
47883;BME280;37739;50.350;7.578;2023-03-13T08:16:29;98496.09;;;12.35;92.48
47883;BME280;37739;50.350;7.578;2023-03-13T08:19:01;98495.31;;;12.41;91.94
47883;BME280;37739;50.350;7.578;2023-03-13T08:21:36;98486.75;;;12.42;91.54
47883;BME280;37739;50.350;7.578;2023-03-13T08:24:04;98479.91;;;12.44;91.44
47883;BME280;37739;50.350;7.578;2023-03-13T08:26:32;98475.66;;;12.51;91.08
47883;BME280;37739;50.350;7.578;2023-03-13T08:28:59;98478.28;;;12.58;90.08
47883;BME280;37739;50.350;7.578;2023-03-13T08:31:37;98459.47;;;12.66;89.87
47883;BME280;37739;50.350;7.578;2023-03-13T08:34:02;98463.81;;;12.70;89.57
47883;BME280;37739;50.350;7.578;2023-03-13T08:36:34;98463.84;;;12.74;89.14
47883;BME280;37739;50.350;7.578;2023-03-13T08:39:11;98459.56;;;12.80;88.58
47883;BME280;37739;50.350;7.578;2023-03-13T08:41:37;98464.81;;;12.90;88.01
47883;BME280;37739;50.350;7.578;2023-03-13T08:44:05;98458.00;;;13.02;87.23
47883;BME280;37739;50.350;7.578;2023-03-13T08:46:33;98463.16;;;13.06;86.57
47883;BME280;37739;50.350;7.578;2023-03-13T08:49:02;98464.91;;;13.10;86.38
47883;BME280;37739;50.350;7.578;2023-03-13T08:51:28;98462.34;;;13.09;86.48
47883;BME280;37739;50.350;7.578;2023-03-13T08:53:56;98458.06;;;13.15;86.39
47883;BME280;37739;50.350;7.578;2023-03-13T08:56:24;98456.41;;;13.25;85.77
47883;BME280;37739;50.350;7.578;2023-03-13T08:58:51;98452.94;;;13.22;85.47
47883;BME280;37739;50.350;7.578;2023-03-13T09:01:18;98452.91;;;13.14;85.25
47883;BME280;37739;50.350;7.578;2023-03-13T09:03:44;98451.19;;;13.11;85.56
47883;BME280;37739;50.350;7.578;2023-03-13T09:06:10;98446.03;;;13.11;85.67
47883;BME280;37739;50.350;7.578;2023-03-13T09:08:38;98443.44;;;13.08;85.61
47883;BME280;37739;50.350;7.578;2023-03-13T09:11:08;98452.00;;;13.04;85.68
47883;BME280;37739;50.350;7.578;2023-03-13T09:13:37;98451.16;;;13.05;85.76
47883;BME280;37739;50.350;7.578;2023-03-13T09:16:06;98442.56;;;13.02;85.89
47883;BME280;37739;50.350;7.578;2023-03-13T09:18:32;98436.56;;;13.01;86.09
47883;BME280;37739;50.350;7.578;2023-03-13T09:20:58;98445.13;;;13.02;86.02
47883;BME280;37739;50.350;7.578;2023-03-13T09:23:24;98454.59;;;13.01;86.03
47883;BME280;37739;50.350;7.578;2023-03-13T09:25:56;98451.13;;;12.98;86.96
47883;BME280;37739;50.350;7.578;2023-03-13T09:28:23;98445.13;;;13.00;87.61
47883;BME280;37739;50.350;7.578;2023-03-13T09:30:51;98444.22;;;12.95;89.33
47883;BME280;37739;50.350;7.578;2023-03-13T09:33:20;98449.34;;;12.90;90.03
47883;BME280;37739;50.350;7.578;2023-03-13T09:35:48;98445.91;;;12.87;91.00
47883;BME280;37739;50.350;7.578;2023-03-13T09:38:20;98434.75;;;12.86;91.20
47883;BME280;37739;50.350;7.578;2023-03-13T09:40:50;98433.94;;;12.96;90.41
47883;BME280;37739;50.350;7.578;2023-03-13T09:43:23;98431.38;;;12.96;90.73
47883;BME280;37739;50.350;7.578;2023-03-13T09:45:53;98436.50;;;12.96;91.00
47883;BME280;37739;50.350;7.578;2023-03-13T09:48:32;98431.34;;;12.90;91.81
47883;BME280;37739;50.350;7.578;2023-03-13T09:53:47;98426.16;;;12.87;92.38
47883;BME280;37739;50.350;7.578;2023-03-13T09:56:24;98417.66;;;12.98;92.08
47883;BME280;37739;50.350;7.578;2023-03-13T09:59:05;98401.38;;;13.06;91.51
47883;BME280;37739;50.350;7.578;2023-03-13T10:01:39;98406.56;;;13.14;91.55
47883;BME280;37739;50.350;7.578;2023-03-13T10:06:47;98415.19;;;13.24;90.78
47883;BME280;37739;50.350;7.578;2023-03-13T10:09:23;98410.03;;;13.21;90.44
47883;BME280;37739;50.350;7.578;2023-03-13T10:12:04;98392.03;;;13.21;90.38
47883;BME280;37739;50.350;7.578;2023-03-13T10:17:39;98403.16;;;13.20;91.15
47883;BME280;37739;50.350;7.578;2023-03-13T10:20:27;98410.88;;;13.16;90.78
47883;BME280;37739;50.350;7.578;2023-03-13T10:22:58;98404.84;;;13.13;91.17
47883;BME280;37739;50.350;7.578;2023-03-13T10:25:29;98401.41;;;13.14;91.62
47883;BME280;37739;50.350;7.578;2023-03-13T10:27:54;98398.84;;;13.11;92.51
47883;BME280;37739;50.350;7.578;2023-03-13T10:30:27;98401.38;;;13.05;94.02
47883;BME280;37739;50.350;7.578;2023-03-13T10:32:58;98391.91;;;13.01;94.17
47883;BME280;37739;50.350;7.578;2023-03-13T10:35:30;98393.63;;;12.95;95.41
47883;BME280;37739;50.350;7.578;2023-03-13T10:38:09;98377.31;;;12.98;96.18
47883;BME280;37739;50.350;7.578;2023-03-13T10:40:35;98382.47;;;12.93;96.50
47883;BME280;37739;50.350;7.578;2023-03-13T10:43:14;98381.59;;;12.91;96.06
47883;BME280;37739;50.350;7.578;2023-03-13T10:45:41;98378.16;;;12.92;96.91
47883;BME280;37739;50.350;7.578;2023-03-13T10:48:12;98372.16;;;12.95;96.59
47883;BME280;37739;50.350;7.578;2023-03-13T10:50:45;98360.16;;;12.95;95.67
47883;BME280;37739;50.350;7.578;2023-03-13T10:56:14;98359.34;;;13.01;96.24
47883;BME280;37739;50.350;7.578;2023-03-13T10:58:50;98350.72;;;13.01;96.39
47883;BME280;37739;50.350;7.578;2023-03-13T11:01:24;98360.16;;;13.00;95.66
47883;BME280;37739;50.350;7.578;2023-03-13T11:03:53;98352.44;;;13.00;95.55
47883;BME280;37739;50.350;7.578;2023-03-13T11:11:53;98348.16;;;13.02;95.83
47883;BME280;37739;50.350;7.578;2023-03-13T11:14:23;98351.63;;;13.07;95.60
47883;BME280;37739;50.350;7.578;2023-03-13T11:19:18;98342.22;;;13.15;95.27
47883;BME280;37739;50.350;7.578;2023-03-13T11:25:01;98329.34;;;13.19;94.86
47883;BME280;37739;50.350;7.578;2023-03-13T11:27:38;98319.03;;;13.22;94.11
47883;BME280;37739;50.350;7.578;2023-03-13T11:32:41;98299.34;;;13.28;92.88
47883;BME280;37739;50.350;7.578;2023-03-13T11:35:21;98291.59;;;13.28;93.16
47883;BME280;37739;50.350;7.578;2023-03-13T11:37:54;98295.94;;;13.32;92.66
47883;BME280;37739;50.350;7.578;2023-03-13T11:40:31;98283.94;;;13.38;91.38
47883;BME280;37739;50.350;7.578;2023-03-13T11:49:16;98270.19;;;13.63;90.23
47883;BME280;37739;50.350;7.578;2023-03-13T12:00:06;98259.03;;;13.69;87.79
47883;BME280;37739;50.350;7.578;2023-03-13T12:02:50;98245.28;;;13.70;87.85
47883;BME280;37739;50.350;7.578;2023-03-13T12:05:22;98245.28;;;13.67;87.87
47883;BME280;37739;50.350;7.578;2023-03-13T12:10:24;98238.41;;;13.66;87.39
47883;BME280;37739;50.350;7.578;2023-03-13T12:13:16;98239.25;;;13.66;87.37
47883;BME280;37739;50.350;7.578;2023-03-13T12:15:48;98235.84;;;13.66;87.38
47883;BME280;37739;50.350;7.578;2023-03-13T12:18:34;98224.66;;;13.73;86.90
47883;BME280;37739;50.350;7.578;2023-03-13T12:23:45;98209.19;;;13.90;85.80
47883;BME280;37739;50.350;7.578;2023-03-13T12:26:27;98191.97;;;13.95;86.18
47883;BME280;37739;50.350;7.578;2023-03-13T12:29:18;98185.91;;;14.10;85.74
47883;BME280;37739;50.350;7.578;2023-03-13T12:31:56;98173.84;;;14.23;84.95
47883;BME280;37739;50.350;7.578;2023-03-13T12:39:44;98195.34;;;14.12;83.99
47883;BME280;37739;50.350;7.578;2023-03-13T12:45:21;98166.16;;;14.15;83.81
47883;BME280;37739;50.350;7.578;2023-03-13T13:01:25;98106.63;;;14.55;84.86
47883;BME280;37739;50.350;7.578;2023-03-13T13:03:56;98114.38;;;14.57;84.78
47883;BME280;37739;50.350;7.578;2023-03-13T13:06:23;98113.50;;;14.54;85.14
47883;BME280;37739;50.350;7.578;2023-03-13T13:16:58;98061.78;;;14.75;83.75
47883;BME280;37739;50.350;7.578;2023-03-13T13:22:57;98049.34;;;15.18;82.10
47883;BME280;37739;50.350;7.578;2023-03-13T13:32:47;98034.09;;;15.77;80.07
47883;BME280;37739;50.350;7.578;2023-03-13T13:35:29;98032.91;;;16.03;79.10
47883;BME280;37739;50.350;7.578;2023-03-13T13:41:00;98021.53;;;15.45;80.19
47883;BME280;37739;50.350;7.578;2023-03-13T13:43:40;98021.69;;;15.28;81.96
47883;BME280;37739;50.350;7.578;2023-03-13T13:46:25;98014.06;;;15.19;83.39
47883;BME280;37739;50.350;7.578;2023-03-13T13:49:07;98008.09;;;15.12;82.45
47883;BME280;37739;50.350;7.578;2023-03-13T13:51:38;98008.94;;;15.12;82.76
47883;BME280;37739;50.350;7.578;2023-03-13T13:54:30;98012.47;;;15.04;82.94
47883;BME280;37739;50.350;7.578;2023-03-13T13:57:11;98000.47;;;14.98;83.00
47883;BME280;37739;50.350;7.578;2023-03-13T13:59:44;98013.41;;;14.95;84.36
47883;BME280;37739;50.350;7.578;2023-03-13T14:02:14;97988.56;;;14.85;87.63
47883;BME280;37739;50.350;7.578;2023-03-13T14:05:00;97975.78;;;14.68;90.85
47883;BME280;37739;50.350;7.578;2023-03-13T14:12:54;97939.81;;;14.48;92.51
47883;BME280;37739;50.350;7.578;2023-03-13T14:15:25;97934.50;;;14.69;91.83
47883;BME280;37739;50.350;7.578;2023-03-13T14:17:54;97927.94;;;15.20;89.43
47883;BME280;37739;50.350;7.578;2023-03-13T14:20:50;97923.28;;;15.49;88.11
47883;BME280;37739;50.350;7.578;2023-03-13T14:23:32;97908.94;;;15.24;87.93
47883;BME280;37739;50.350;7.578;2023-03-13T14:26:08;97902.09;;;15.20;88.21
47883;BME280;37739;50.350;7.578;2023-03-13T14:28:36;97895.25;;;15.17;87.91
47883;BME280;37739;50.350;7.578;2023-03-13T14:31:02;97883.38;;;15.02;87.72
47883;BME280;37739;50.350;7.578;2023-03-13T14:33:30;97889.44;;;15.01;87.43
47883;BME280;37739;50.350;7.578;2023-03-13T14:35:58;97888.50;;;15.05;87.13
47883;BME280;37739;50.350;7.578;2023-03-13T14:38:27;97897.16;;;15.01;86.82
47883;BME280;37739;50.350;7.578;2023-03-13T14:40:56;97903.00;;;15.19;86.76
47883;BME280;37739;50.350;7.578;2023-03-13T14:43:39;97890.44;;;15.56;84.78
47883;BME280;37739;50.350;7.578;2023-03-13T14:46:23;97884.03;;;15.18;85.10
47883;BME280;37739;50.350;7.578;2023-03-13T14:49:06;97887.78;;;14.94;84.79
47883;BME280;37739;50.350;7.578;2023-03-13T14:51:37;97884.03;;;15.18;84.96
47883;BME280;37739;50.350;7.578;2023-03-13T14:54:03;97877.22;;;15.12;84.92
47883;BME280;37739;50.350;7.578;2023-03-13T14:56:32;97874.69;;;15.08;85.64
47883;BME280;37739;50.350;7.578;2023-03-13T14:59:25;97867.88;;;15.04;86.08
47883;BME280;37739;50.350;7.578;2023-03-13T15:02:01;97869.53;;;15.08;85.70
47883;BME280;37739;50.350;7.578;2023-03-13T15:04:57;97859.09;;;15.19;85.79
47883;BME280;37739;50.350;7.578;2023-03-13T15:07:49;97843.78;;;15.03;85.95